sensor_id;sensor_type;location;lat;lon;timestamp;temperature;humidity
23803;DHT22;12082;51.786;6.018;2023-01-30T01:29:49;5.80;99.90
23803;DHT22;12082;51.786;6.018;2023-01-30T01:34:40;5.90;99.90
23803;DHT22;12082;51.786;6.018;2023-01-30T01:37:06;6.00;99.90
23803;DHT22;12082;51.786;6.018;2023-01-30T01:39:31;6.00;99.90
23803;DHT22;12082;51.786;6.018;2023-01-30T01:42:16;6.20;99.90
23803;DHT22;12082;51.786;6.018;2023-01-30T01:47:38;6.20;99.90
23803;DHT22;12082;51.786;6.018;2023-01-30T01:50:09;5.90;99.90
23803;DHT22;12082;51.786;6.018;2023-01-30T01:55:05;6.20;99.90
23803;DHT22;12082;51.786;6.018;2023-01-30T01:57:35;6.30;99.90
23803;DHT22;12082;51.786;6.018;2023-01-30T02:00:11;6.30;99.90
23803;DHT22;12082;51.786;6.018;2023-01-30T02:02:46;6.20;99.90
23803;DHT22;12082;51.786;6.018;2023-01-30T02:05:15;6.20;99.90
23803;DHT22;12082;51.786;6.018;2023-01-30T02:07:46;6.50;99.90
23803;DHT22;12082;51.786;6.018;2023-01-30T02:10:18;6.60;99.90
23803;DHT22;12082;51.786;6.018;2023-01-30T02:12:44;6.20;99.90
23803;DHT22;12082;51.786;6.018;2023-01-30T02:15:11;6.20;99.90
23803;DHT22;12082;51.786;6.018;2023-01-30T02:17:36;6.30;99.90
23803;DHT22;12082;51.786;6.018;2023-01-30T02:20:26;6.40;99.90
23803;DHT22;12082;51.786;6.018;2023-01-30T02:26:24;6.40;99.90
23803;DHT22;12082;51.786;6.018;2023-01-30T02:37:26;6.20;99.90
23803;DHT22;12082;51.786;6.018;2023-01-30T02:42:39;6.30;99.90
23803;DHT22;12082;51.786;6.018;2023-01-30T02:47:52;6.30;99.90
23803;DHT22;12082;51.786;6.018;2023-01-30T02:50:23;6.20;99.90
23803;DHT22;12082;51.786;6.018;2023-01-30T02:52:50;6.30;99.90
23803;DHT22;12082;51.786;6.018;2023-01-30T02:55:22;6.30;99.90
23803;DHT22;12082;51.786;6.018;2023-01-30T02:57:48;6.30;99.90
23803;DHT22;12082;51.786;6.018;2023-01-30T03:03:22;6.20;99.90
23803;DHT22;12082;51.786;6.018;2023-01-30T03:14:34;6.20;99.90
23803;DHT22;12082;51.786;6.018;2023-01-30T03:17:03;6.10;99.90
23803;DHT22;12082;51.786;6.018;2023-01-30T03:19:31;6.20;99.90
23803;DHT22;12082;51.786;6.018;2023-01-30T03:21:56;6.20;99.90
23803;DHT22;12082;51.786;6.018;2023-01-30T03:26:59;6.40;99.90
23803;DHT22;12082;51.786;6.018;2023-01-30T03:29:26;6.20;99.90
23803;DHT22;12082;51.786;6.018;2023-01-30T03:31:52;6.20;99.90
23803;DHT22;12082;51.786;6.018;2023-01-30T03:34:17;6.20;99.90
23803;DHT22;12082;51.786;6.018;2023-01-30T03:36:43;6.20;99.90
23803;DHT22;12082;51.786;6.018;2023-01-30T03:39:08;6.40;99.90
23803;DHT22;12082;51.786;6.018;2023-01-30T03:41:34;6.20;99.90
23803;DHT22;12082;51.786;6.018;2023-01-30T03:44:00;6.20;99.90
23803;DHT22;12082;51.786;6.018;2023-01-30T03:46:25;6.10;99.90
23803;DHT22;12082;51.786;6.018;2023-01-30T03:48:51;6.20;99.90
23803;DHT22;12082;51.786;6.018;2023-01-30T03:51:16;6.20;99.90
23803;DHT22;12082;51.786;6.018;2023-01-30T03:53:42;6.20;99.90
23803;DHT22;12082;51.786;6.018;2023-01-30T03:56:07;6.20;99.90
23803;DHT22;12082;51.786;6.018;2023-01-30T03:58:33;6.20;99.90
23803;DHT22;12082;51.786;6.018;2023-01-30T04:00:58;6.30;99.90
23803;DHT22;12082;51.786;6.018;2023-01-30T04:03:24;6.20;99.90
23803;DHT22;12082;51.786;6.018;2023-01-30T04:05:49;6.30;99.90
23803;DHT22;12082;51.786;6.018;2023-01-30T04:08:15;6.30;99.90
23803;DHT22;12082;51.786;6.018;2023-01-30T04:10:40;6.30;99.90
23803;DHT22;12082;51.786;6.018;2023-01-30T04:13:06;6.30;99.90
23803;DHT22;12082;51.786;6.018;2023-01-30T04:15:31;6.40;99.90
23803;DHT22;12082;51.786;6.018;2023-01-30T04:17:57;6.50;99.90
23803;DHT22;12082;51.786;6.018;2023-01-30T04:20:22;6.50;99.90
23803;DHT22;12082;51.786;6.018;2023-01-30T04:22:49;6.90;99.90
23803;DHT22;12082;51.786;6.018;2023-01-30T04:25:14;6.60;99.90
23803;DHT22;12082;51.786;6.018;2023-01-30T04:27:40;6.50;99.90
23803;DHT22;12082;51.786;6.018;2023-01-30T04:30:06;6.70;99.90
23803;DHT22;12082;51.786;6.018;2023-01-30T04:32:31;6.70;99.90
23803;DHT22;12082;51.786;6.018;2023-01-30T04:34:57;6.70;99.90
23803;DHT22;12082;51.786;6.018;2023-01-30T04:37:23;6.70;99.90
23803;DHT22;12082;51.786;6.018;2023-01-30T04:39:48;6.70;99.90
23803;DHT22;12082;51.786;6.018;2023-01-30T04:42:14;6.70;99.90
23803;DHT22;12082;51.786;6.018;2023-01-30T04:44:39;6.90;99.90
23803;DHT22;12082;51.786;6.018;2023-01-30T04:47:05;6.80;99.90
23803;DHT22;12082;51.786;6.018;2023-01-30T04:49:30;6.80;99.90
23803;DHT22;12082;51.786;6.018;2023-01-30T04:51:56;6.90;99.90
23803;DHT22;12082;51.786;6.018;2023-01-30T04:54:22;6.80;99.90
23803;DHT22;12082;51.786;6.018;2023-01-30T04:56:47;6.90;99.90
23803;DHT22;12082;51.786;6.018;2023-01-30T04:59:13;6.90;99.90
23803;DHT22;12082;51.786;6.018;2023-01-30T05:01:39;6.80;99.90
23803;DHT22;12082;51.786;6.018;2023-01-30T05:04:05;6.80;99.90
23803;DHT22;12082;51.786;6.018;2023-01-30T05:08:59;6.80;99.90
23803;DHT22;12082;51.786;6.018;2023-01-30T05:11:26;6.90;99.90
23803;DHT22;12082;51.786;6.018;2023-01-30T05:13:52;6.80;99.90
23803;DHT22;12082;51.786;6.018;2023-01-30T05:16:20;6.90;99.90
23803;DHT22;12082;51.786;6.018;2023-01-30T05:18:46;6.90;99.90
23803;DHT22;12082;51.786;6.018;2023-01-30T05:21:13;6.80;99.90
23803;DHT22;12082;51.786;6.018;2023-01-30T05:26:07;6.70;99.90
23803;DHT22;12082;51.786;6.018;2023-01-30T05:28:33;6.90;99.90
23803;DHT22;12082;51.786;6.018;2023-01-30T05:33:33;6.80;99.90
23803;DHT22;12082;51.786;6.018;2023-01-30T05:50:50;6.70;99.90
